createdAt,value
2018-08-28T00:02:18.383Z,17.47
2018-08-28T00:04:47.156Z,17.52
2018-08-28T00:07:15.912Z,17.54
2018-08-28T00:09:44.784Z,17.61
2018-08-28T00:12:13.567Z,17.69
2018-08-28T00:14:42.340Z,17.65
2018-08-28T00:17:11.206Z,17.63
2018-08-28T00:19:39.875Z,17.68
2018-08-28T00:22:08.714Z,17.63
2018-08-28T00:24:37.504Z,17.55
2018-08-28T00:27:06.280Z,17.57
2018-08-28T00:29:35.056Z,17.51
2018-08-28T00:32:03.876Z,17.63
2018-08-28T00:34:32.729Z,17.49
2018-08-28T00:37:01.520Z,17.46
2018-08-28T00:39:30.307Z,17.45
2018-08-28T00:41:59.101Z,17.45
2018-08-28T00:44:27.993Z,17.49
2018-08-28T00:46:56.762Z,17.48
2018-08-28T00:49:25.536Z,17.49
2018-08-28T00:51:54.345Z,17.56
2018-08-28T00:54:23.233Z,17.36
2018-08-28T00:56:52.056Z,17.24
2018-08-28T00:59:20.815Z,17.17
2018-08-28T01:01:49.613Z,17.14
2018-08-28T01:04:18.379Z,17.21
2018-08-28T01:06:47.149Z,17.17
2018-08-28T01:09:15.987Z,17.13
2018-08-28T01:11:44.810Z,17.12
2018-08-28T01:14:13.609Z,17.05
2018-08-28T01:16:42.435Z,17.03
2018-08-28T01:19:11.205Z,17.01
2018-08-28T01:21:40.314Z,16.98
2018-08-28T01:24:09.088Z,16.93
2018-08-28T01:26:37.879Z,16.99
2018-08-28T01:29:06.687Z,16.89
2018-08-28T01:31:35.452Z,16.85
2018-08-28T01:34:04.264Z,16.74
2018-08-28T01:36:33.062Z,16.74
2018-08-28T01:39:01.821Z,16.71
2018-08-28T01:41:30.603Z,16.81
2018-08-28T01:43:59.437Z,16.76
2018-08-28T01:46:28.265Z,16.57
2018-08-28T01:48:57.039Z,16.47
2018-08-28T01:51:25.824Z,16.50
2018-08-28T01:53:54.596Z,16.37
2018-08-28T01:56:23.377Z,16.36
2018-08-28T01:58:52.150Z,16.24
2018-08-28T02:01:21.772Z,16.12
2018-08-28T02:03:50.540Z,16.02
2018-08-28T02:06:19.293Z,16.05
2018-08-28T02:08:48.072Z,16.00
2018-08-28T02:11:16.850Z,15.98
2018-08-28T02:13:45.620Z,16.03
2018-08-28T02:16:14.416Z,16.17
2018-08-28T02:18:43.196Z,16.14
2018-08-28T02:21:12.225Z,16.22
2018-08-28T02:23:40.984Z,16.29
2018-08-28T02:26:09.808Z,16.33
2018-08-28T02:28:39.329Z,16.30
2018-08-28T02:31:08.691Z,16.22
2018-08-28T02:33:37.604Z,16.20
2018-08-28T02:36:07.248Z,16.21
2018-08-28T02:38:36.009Z,16.25
2018-08-28T02:41:04.940Z,16.11
2018-08-28T02:43:33.697Z,16.00
2018-08-28T02:46:02.528Z,15.91
2018-08-28T02:48:32.752Z,15.94
2018-08-28T02:51:01.608Z,15.85
2018-08-28T02:53:30.393Z,15.71
2018-08-28T02:55:59.175Z,15.61
2018-08-28T02:58:27.961Z,15.56
2018-08-28T03:00:56.752Z,15.49
2018-08-28T03:03:25.520Z,15.50
2018-08-28T03:05:54.312Z,15.60
2018-08-28T03:08:23.096Z,15.51
2018-08-28T03:10:51.946Z,15.58
2018-08-28T03:13:20.728Z,15.56
2018-08-28T03:15:49.611Z,15.53
2018-08-28T03:18:18.576Z,15.54
2018-08-28T03:20:47.348Z,15.47
2018-08-28T03:23:16.305Z,15.47
2018-08-28T03:25:45.132Z,15.42
2018-08-28T03:28:14.185Z,15.43
2018-08-28T03:30:42.950Z,15.36
2018-08-28T03:33:11.715Z,15.24
2018-08-28T03:35:40.503Z,15.16
2018-08-28T03:38:09.279Z,15.13
2018-08-28T03:40:38.060Z,15.09
2018-08-28T03:43:06.875Z,15.01
2018-08-28T03:45:35.662Z,14.97
2018-08-28T03:48:04.433Z,14.93
2018-08-28T03:50:33.296Z,14.88
2018-08-28T03:53:02.060Z,14.89
2018-08-28T03:55:30.864Z,14.89
2018-08-28T03:57:59.673Z,14.85
2018-08-28T04:00:28.439Z,14.95
2018-08-28T04:02:58.824Z,15.02
2018-08-28T04:05:29.838Z,15.00
2018-08-28T04:07:59.561Z,15.07
2018-08-28T04:10:29.762Z,15.05
2018-08-28T04:13:00.042Z,15.08
2018-08-28T04:15:28.867Z,15.16
2018-08-28T04:17:57.642Z,15.16
2018-08-28T04:20:26.422Z,15.21
2018-08-28T04:22:55.217Z,15.22
2018-08-28T04:25:25.206Z,15.27
2018-08-28T04:27:56.035Z,15.32
2018-08-28T04:30:25.595Z,15.39
2018-08-28T04:32:55.859Z,15.43
2018-08-28T04:35:25.930Z,15.51
2018-08-28T04:37:55.201Z,15.60
2018-08-28T04:40:25.617Z,15.64
2018-08-28T04:42:54.726Z,15.66
2018-08-28T04:45:23.493Z,15.68
2018-08-28T04:47:52.258Z,15.73
2018-08-28T04:50:21.020Z,15.79
2018-08-28T04:52:49.804Z,15.85
2018-08-28T04:55:18.585Z,15.86
2018-08-28T04:57:47.357Z,15.93
2018-08-28T05:00:16.249Z,15.98
2018-08-28T05:02:45.366Z,16.01
2018-08-28T05:05:14.494Z,16.06
2018-08-28T05:07:43.277Z,16.11
2018-08-28T05:10:12.469Z,16.13
2018-08-28T05:12:41.425Z,16.16
2018-08-28T05:15:10.273Z,16.16
2018-08-28T05:17:39.077Z,16.06
2018-08-28T05:20:08.025Z,16.03
2018-08-28T05:22:37.061Z,16.04
2018-08-28T05:25:05.970Z,16.04
2018-08-28T05:27:34.736Z,16.11
2018-08-28T05:30:03.516Z,16.13
2018-08-28T05:32:32.338Z,16.19
2018-08-28T05:35:01.167Z,16.17
2018-08-28T05:37:29.919Z,16.18
2018-08-28T05:39:58.676Z,16.18
2018-08-28T05:42:27.425Z,16.12
2018-08-28T05:44:56.180Z,16.09
2018-08-28T05:47:24.928Z,16.11
2018-08-28T05:49:53.692Z,16.15
2018-08-28T05:52:22.594Z,16.16
2018-08-28T05:54:51.382Z,16.16
2018-08-28T05:57:20.131Z,16.20
2018-08-28T05:59:48.879Z,16.18
2018-08-28T06:02:17.642Z,16.23
2018-08-28T06:04:46.383Z,16.36
2018-08-28T06:07:15.187Z,16.58
2018-08-28T06:09:43.927Z,16.56
2018-08-28T06:12:12.731Z,16.64
2018-08-28T06:14:41.559Z,16.46
2018-08-28T06:17:10.330Z,16.39
2018-08-28T06:19:39.090Z,16.62
2018-08-28T06:22:07.855Z,16.56
2018-08-28T06:24:36.618Z,16.55
2018-08-28T06:27:05.381Z,16.60
2018-08-28T06:29:34.153Z,16.63
2018-08-28T06:32:02.923Z,16.79
2018-08-28T06:34:31.692Z,16.82
2018-08-28T06:37:00.477Z,16.94
2018-08-28T06:39:29.260Z,17.13
2018-08-28T06:41:58.014Z,17.15
2018-08-28T06:44:26.920Z,17.08
2018-08-28T06:46:55.684Z,17.09
2018-08-28T06:49:24.466Z,17.50
2018-08-28T06:51:53.289Z,18.43
2018-08-28T06:54:22.072Z,19.38
2018-08-28T06:56:50.936Z,20.38
2018-08-28T06:59:19.689Z,20.50
2018-08-28T07:01:48.741Z,21.70
2018-08-28T07:04:17.492Z,21.81
2018-08-28T07:06:46.232Z,21.67
2018-08-28T07:09:15.002Z,21.96
2018-08-28T07:11:43.780Z,22.52
2018-08-28T07:14:12.549Z,23.10
2018-08-28T07:16:41.311Z,23.20
2018-08-28T07:19:10.081Z,22.92
2018-08-28T07:21:38.894Z,23.65
2018-08-28T07:24:07.673Z,23.66
2018-08-28T07:26:36.504Z,24.35
2018-08-28T07:29:05.296Z,25.33
2018-08-28T07:31:34.092Z,24.28
2018-08-28T07:34:02.852Z,24.78
2018-08-28T07:36:31.605Z,24.80
2018-08-28T07:39:00.351Z,24.67
2018-08-28T07:41:29.110Z,23.75
2018-08-28T07:43:57.879Z,24.07
2018-08-28T07:46:26.660Z,25.43
2018-08-28T07:48:55.453Z,25.73
2018-08-28T07:51:24.277Z,25.39
2018-08-28T07:53:53.087Z,25.15
2018-08-28T07:56:21.856Z,23.75
2018-08-28T07:58:50.621Z,25.08
2018-08-28T08:01:20.295Z,25.19
2018-08-28T08:03:49.044Z,25.47
2018-08-28T08:06:17.817Z,24.23
2018-08-28T08:08:46.612Z,23.07
2018-08-28T08:11:15.418Z,22.04
2018-08-28T08:13:44.172Z,22.01
2018-08-28T08:16:12.985Z,22.60
2018-08-28T08:18:41.774Z,22.82
2018-08-28T08:21:10.559Z,22.52
2018-08-28T08:23:39.324Z,22.80
2018-08-28T08:26:08.180Z,23.07
2018-08-28T08:28:36.961Z,23.66
2018-08-28T08:31:05.814Z,22.86
2018-08-28T08:33:34.572Z,22.31
2018-08-28T08:36:03.336Z,22.52
2018-08-28T08:38:32.083Z,22.34
2018-08-28T08:41:00.868Z,22.51
2018-08-28T08:43:29.620Z,22.46
2018-08-28T08:45:58.385Z,21.81
2018-08-28T08:48:27.144Z,21.92
2018-08-28T08:50:55.912Z,21.92
2018-08-28T08:53:24.872Z,21.33
2018-08-28T08:55:53.656Z,21.42
2018-08-28T08:58:22.460Z,21.78
2018-08-28T09:00:51.248Z,22.39
2018-08-28T09:03:20.053Z,22.24
2018-08-28T09:05:48.860Z,22.00
2018-08-28T09:08:17.625Z,22.23
2018-08-28T09:10:46.394Z,22.57
2018-08-28T09:13:15.176Z,22.42
2018-08-28T09:15:43.926Z,22.12
2018-08-28T09:18:12.714Z,21.91
2018-08-28T09:20:41.457Z,22.44
2018-08-28T09:23:10.243Z,21.99
2018-08-28T09:25:39.032Z,22.33
2018-08-28T09:28:07.797Z,22.88
2018-08-28T09:30:36.574Z,23.50
2018-08-28T09:33:05.417Z,23.99
2018-08-28T09:35:34.692Z,23.01
2018-08-28T09:38:03.481Z,23.30
2018-08-28T09:40:32.242Z,23.02
2018-08-28T09:43:00.981Z,23.05
2018-08-28T09:45:29.794Z,23.37
2018-08-28T09:47:58.629Z,23.37
2018-08-28T09:50:27.384Z,23.42
2018-08-28T09:52:56.173Z,23.48
2018-08-28T09:55:24.960Z,23.56
2018-08-28T09:57:53.739Z,23.85
2018-08-28T10:00:27.392Z,23.59
2018-08-28T10:02:56.816Z,23.37
2018-08-28T10:05:25.809Z,23.66
2018-08-28T10:07:54.673Z,23.87
2018-08-28T10:10:23.369Z,23.60
2018-08-28T10:12:52.145Z,23.63
2018-08-28T10:15:20.920Z,24.04
2018-08-28T10:17:49.683Z,23.68
2018-08-28T10:20:18.456Z,24.14
2018-08-28T10:22:47.288Z,23.91
2018-08-28T10:25:16.005Z,24.01
2018-08-28T10:27:44.849Z,23.83
2018-08-28T10:30:13.658Z,23.92
2018-08-28T10:32:42.392Z,23.20
2018-08-28T10:35:11.157Z,23.82
2018-08-28T10:37:39.940Z,24.25
2018-08-28T10:40:08.720Z,24.71
2018-08-28T10:42:37.486Z,24.35
2018-08-28T10:45:06.460Z,24.52
2018-08-28T10:47:35.240Z,24.46
2018-08-28T10:50:04.078Z,24.53
2018-08-28T10:52:32.988Z,25.17
2018-08-28T10:55:01.753Z,25.10
2018-08-28T10:57:30.508Z,25.57
2018-08-28T10:59:59.260Z,24.81
2018-08-28T11:02:28.042Z,24.93
2018-08-28T11:04:56.832Z,24.90
2018-08-28T11:07:25.612Z,25.27
2018-08-28T11:09:54.362Z,25.62
2018-08-28T11:12:23.143Z,26.12
2018-08-28T11:14:51.902Z,25.99
2018-08-28T11:17:20.659Z,26.20
2018-08-28T11:19:49.508Z,25.87
2018-08-28T11:22:18.289Z,25.91
2018-08-28T11:24:47.045Z,26.56
2018-08-28T11:27:15.885Z,26.71
2018-08-28T11:29:44.660Z,27.43
2018-08-28T11:32:13.444Z,27.57
2018-08-28T11:34:42.199Z,27.68
2018-08-28T11:37:11.044Z,26.99
2018-08-28T11:39:39.804Z,27.48
2018-08-28T11:42:08.589Z,27.91
2018-08-28T11:44:37.332Z,27.14
2018-08-28T11:47:06.169Z,27.61
2018-08-28T11:49:34.911Z,27.76
2018-08-28T11:52:03.708Z,28.21
2018-08-28T11:54:32.496Z,27.93
2018-08-28T11:57:01.281Z,28.17
2018-08-28T11:59:30.052Z,27.53
2018-08-28T12:01:58.826Z,26.01
2018-08-28T12:04:27.599Z,26.37
2018-08-28T12:06:56.391Z,27.22
2018-08-28T12:09:25.117Z,27.27
2018-08-28T12:11:53.883Z,27.63
2018-08-28T12:14:22.656Z,27.20
2018-08-28T12:16:51.440Z,27.31
2018-08-28T12:19:20.201Z,28.10
2018-08-28T12:21:48.974Z,28.39
2018-08-28T12:24:17.788Z,28.12
2018-08-28T12:26:46.565Z,28.23
2018-08-28T12:29:15.335Z,27.94
2018-08-28T12:31:44.101Z,28.37
2018-08-28T12:34:12.899Z,28.43
2018-08-28T12:36:41.710Z,28.49
2018-08-28T12:39:10.504Z,27.79
2018-08-28T12:41:39.316Z,27.88
2018-08-28T12:44:08.190Z,28.06
2018-08-28T12:46:36.852Z,27.97
2018-08-28T12:49:05.663Z,27.39
2018-08-28T12:51:34.460Z,27.78
2018-08-28T12:54:03.243Z,27.99
2018-08-28T12:56:32.035Z,28.40
2018-08-28T12:59:00.801Z,28.65
2018-08-28T13:01:29.565Z,28.55
2018-08-28T13:03:59.488Z,29.02
2018-08-28T13:06:28.660Z,29.07
2018-08-28T13:08:57.777Z,28.55
2018-08-28T13:11:27.374Z,28.42
2018-08-28T13:13:56.384Z,28.11
2018-08-28T13:16:25.145Z,27.76
2018-08-28T13:18:54.178Z,28.18
2018-08-28T13:21:22.917Z,28.21
2018-08-28T13:23:51.706Z,27.70
2018-08-28T13:26:20.481Z,27.45
2018-08-28T13:28:49.250Z,27.85
2018-08-28T13:31:18.029Z,27.32
2018-08-28T13:33:46.871Z,27.62
2018-08-28T13:36:15.619Z,28.19
2018-08-28T13:38:44.408Z,28.17
2018-08-28T13:41:13.185Z,28.28
2018-08-28T13:43:41.945Z,28.34
2018-08-28T13:46:10.688Z,28.77
2018-08-28T13:48:39.530Z,28.95
2018-08-28T13:51:08.327Z,29.19
2018-08-28T13:53:37.143Z,29.28
2018-08-28T13:56:05.892Z,28.40
2018-08-28T13:58:34.689Z,28.42
2018-08-28T14:01:03.473Z,28.89
2018-08-28T14:03:32.254Z,29.63
2018-08-28T14:06:01.065Z,29.19
2018-08-28T14:08:29.813Z,28.24
2018-08-28T14:10:58.582Z,28.11
2018-08-28T14:13:27.499Z,28.22
2018-08-28T14:15:56.196Z,27.52
2018-08-28T14:18:25.046Z,27.75
2018-08-28T14:20:53.804Z,27.88
2018-08-28T14:23:22.641Z,28.16
2018-08-28T14:25:52.002Z,27.98
2018-08-28T14:28:20.808Z,27.33
2018-08-28T14:30:49.582Z,27.73
2018-08-28T14:33:18.388Z,28.30
2018-08-28T14:35:47.278Z,28.77
2018-08-28T14:38:15.998Z,28.92
2018-08-28T14:40:44.881Z,28.47
2018-08-28T14:43:13.668Z,27.49
2018-08-28T14:45:42.436Z,27.86
2018-08-28T14:48:11.213Z,28.49
2018-08-28T14:50:39.985Z,28.81
2018-08-28T14:53:08.791Z,28.53
2018-08-28T14:55:37.564Z,28.14
2018-08-28T14:58:06.402Z,27.67
2018-08-28T15:00:35.205Z,27.73
2018-08-28T15:03:03.994Z,28.26
2018-08-28T15:05:32.776Z,28.95
2018-08-28T15:08:01.515Z,28.74
2018-08-28T15:10:30.404Z,28.96
2018-08-28T15:12:59.163Z,28.97
2018-08-28T15:15:27.933Z,29.01
2018-08-28T15:17:56.732Z,29.01
2018-08-28T15:20:25.484Z,28.97
2018-08-28T15:22:54.247Z,29.07
2018-08-28T15:25:23.012Z,29.56
2018-08-28T15:27:51.788Z,29.66
2018-08-28T15:30:20.545Z,29.57
2018-08-28T15:32:49.334Z,29.45
2018-08-28T15:35:18.129Z,28.62
2018-08-28T15:37:46.884Z,28.23
2018-08-28T15:40:15.687Z,28.48
2018-08-28T15:42:44.446Z,28.88
2018-08-28T15:45:13.201Z,29.10
2018-08-28T15:47:41.980Z,29.04
2018-08-28T15:50:10.770Z,28.98
2018-08-28T15:52:39.528Z,29.05
2018-08-28T15:55:08.328Z,29.00
2018-08-28T15:57:37.163Z,29.06
2018-08-28T16:00:07.169Z,28.40
2018-08-28T16:02:35.993Z,28.54
2018-08-28T16:05:04.825Z,28.86
2018-08-28T16:07:33.588Z,28.93
2018-08-28T16:10:02.353Z,28.84
2018-08-28T16:12:31.110Z,28.86
2018-08-28T16:14:59.919Z,28.63
2018-08-28T16:17:28.699Z,28.48
2018-08-28T16:19:57.475Z,28.62
2018-08-28T16:22:32.014Z,28.52
2018-08-28T16:25:00.777Z,28.21
2018-08-28T16:27:29.578Z,28.12
2018-08-28T16:29:58.355Z,28.10
2018-08-28T16:32:27.124Z,27.54
2018-08-28T16:34:55.871Z,27.61
2018-08-28T16:37:24.714Z,27.91
2018-08-28T16:39:53.477Z,27.89
2018-08-28T16:42:22.247Z,27.83
2018-08-28T16:44:51.016Z,27.91
2018-08-28T16:47:19.802Z,27.59
2018-08-28T16:49:48.585Z,26.23
2018-08-28T16:52:17.361Z,26.14
2018-08-28T16:54:46.136Z,26.51
2018-08-28T16:57:14.909Z,26.50
2018-08-28T16:59:43.652Z,26.58
2018-08-28T17:02:12.418Z,26.69
2018-08-28T17:04:41.164Z,26.64
2018-08-28T17:07:09.975Z,26.62
2018-08-28T17:09:38.704Z,26.66
2018-08-28T17:12:07.491Z,26.62
2018-08-28T17:14:36.276Z,26.47
2018-08-28T17:17:05.136Z,26.34
2018-08-28T17:19:34.270Z,26.37
2018-08-28T17:22:03.296Z,26.27
2018-08-28T17:24:32.104Z,26.08
2018-08-28T17:27:00.932Z,25.80
2018-08-28T17:29:29.774Z,25.96
2018-08-28T17:31:58.655Z,25.88
2018-08-28T17:34:27.944Z,25.69
2018-08-28T17:36:56.758Z,25.52
2018-08-28T17:39:25.594Z,25.35
2018-08-28T17:41:54.984Z,25.19
2018-08-28T17:44:23.775Z,24.92
2018-08-28T17:46:52.528Z,24.95
2018-08-28T17:49:21.338Z,24.69
2018-08-28T17:51:50.415Z,24.60
2018-08-28T17:54:19.235Z,24.38
2018-08-28T17:56:47.981Z,24.08
2018-08-28T17:59:16.739Z,23.95
2018-08-28T18:01:45.520Z,23.81
2018-08-28T18:04:14.456Z,23.75
2018-08-28T18:06:43.253Z,23.77
2018-08-28T18:09:12.072Z,23.50
2018-08-28T18:11:40.865Z,23.41
2018-08-28T18:14:09.704Z,23.31
2018-08-28T18:16:38.630Z,23.09
2018-08-28T18:19:07.465Z,23.03
2018-08-28T18:21:36.393Z,22.87
2018-08-28T18:24:05.250Z,22.66
2018-08-28T18:26:34.077Z,22.46
2018-08-28T18:29:02.959Z,22.25
2018-08-28T18:31:31.813Z,22.21
2018-08-28T18:34:00.695Z,22.13
2018-08-28T18:36:29.486Z,22.06
2018-08-28T18:38:58.647Z,21.92
2018-08-28T18:41:27.509Z,22.02
2018-08-28T18:43:56.283Z,21.87
2018-08-28T18:46:25.139Z,21.67
2018-08-28T18:48:54.006Z,21.72
2018-08-28T18:51:22.823Z,21.59
2018-08-28T18:53:51.656Z,21.38
2018-08-28T18:56:20.752Z,21.36
2018-08-28T18:58:49.684Z,21.27
2018-08-28T19:01:18.443Z,21.15
2018-08-28T19:03:47.390Z,21.06
2018-08-28T19:06:16.442Z,20.93
2018-08-28T19:08:45.468Z,20.86
2018-08-28T19:11:14.535Z,20.77
2018-08-28T19:13:43.376Z,20.71
2018-08-28T19:16:12.470Z,20.57
2018-08-28T19:18:41.284Z,20.55
2018-08-28T19:21:10.148Z,20.47
2018-08-28T19:23:38.909Z,20.39
2018-08-28T19:26:08.116Z,20.31
2018-08-28T19:28:37.489Z,20.25
2018-08-28T19:31:06.585Z,20.17
2018-08-28T19:33:35.605Z,20.08
2018-08-28T19:36:04.436Z,20.01
2018-08-28T19:38:33.611Z,19.85
2018-08-28T19:41:02.543Z,19.80
2018-08-28T19:43:31.335Z,19.73
2018-08-28T19:46:00.368Z,19.72
2018-08-28T19:48:29.210Z,19.64
2018-08-28T19:50:58.029Z,19.66
2018-08-28T19:53:27.609Z,19.58
2018-08-28T19:55:56.556Z,19.48
2018-08-28T19:58:25.704Z,19.35
2018-08-28T20:00:54.501Z,19.35
2018-08-28T20:03:23.582Z,19.34
2018-08-28T20:05:52.803Z,19.37
2018-08-28T20:08:22.319Z,19.34
2018-08-28T20:10:51.254Z,19.28
2018-08-28T20:13:20.008Z,19.24
2018-08-28T20:15:48.879Z,19.23
2018-08-28T20:18:17.783Z,19.17
2018-08-28T20:20:46.633Z,19.13
2018-08-28T20:23:15.630Z,19.12
2018-08-28T20:25:44.472Z,19.14
2018-08-28T20:28:13.576Z,19.09
2018-08-28T20:30:42.320Z,19.04
2018-08-28T20:33:11.100Z,19.08
2018-08-28T20:35:39.917Z,19.05
2018-08-28T20:38:08.712Z,19.02
2018-08-28T20:40:37.616Z,18.99
2018-08-28T20:43:06.455Z,18.98
2018-08-28T20:45:35.252Z,18.90
2018-08-28T20:48:04.630Z,18.88
2018-08-28T20:50:35.963Z,18.81
2018-08-28T20:53:06.433Z,18.73
2018-08-28T20:55:35.584Z,18.70
2018-08-28T20:58:04.585Z,18.68
2018-08-28T21:00:36.113Z,18.70
2018-08-28T21:03:05.628Z,18.66
2018-08-28T21:05:34.572Z,18.63
2018-08-28T21:08:03.420Z,18.70
2018-08-28T21:10:32.199Z,18.76
2018-08-28T21:13:01.088Z,18.71
2018-08-28T21:15:31.794Z,18.71
2018-08-28T21:18:00.742Z,18.70
2018-08-28T21:20:29.660Z,18.83
2018-08-28T21:22:58.500Z,18.68
2018-08-28T21:25:27.272Z,18.55
2018-08-28T21:27:56.108Z,18.51
2018-08-28T21:30:24.906Z,18.45
2018-08-28T21:32:53.673Z,18.38
2018-08-28T21:35:22.453Z,18.33
2018-08-28T21:37:51.309Z,18.32
2018-08-28T21:40:20.093Z,18.29
2018-08-28T21:42:49.134Z,18.31
2018-08-28T21:45:17.917Z,18.32
2018-08-28T21:47:46.689Z,18.29
2018-08-28T21:50:15.973Z,18.26
2018-08-28T21:52:44.989Z,18.20
2018-08-28T21:55:13.801Z,18.20
2018-08-28T21:57:42.547Z,18.22
2018-08-28T22:00:11.684Z,18.26
2018-08-28T22:02:40.480Z,18.29
2018-08-28T22:05:11.856Z,18.25
2018-08-28T22:07:41.846Z,18.24
2018-08-28T22:10:11.135Z,18.29
2018-08-28T22:13:20.437Z,18.43
2018-08-28T22:15:49.849Z,18.31
2018-08-28T22:18:18.884Z,18.36
2018-08-28T22:20:53.031Z,18.39
2018-08-28T22:23:21.792Z,18.36
2018-08-28T22:25:51.170Z,18.38
2018-08-28T22:28:19.955Z,18.55
2018-08-28T22:30:49.333Z,18.59
2018-08-28T22:33:18.460Z,18.50
2018-08-28T22:35:47.284Z,18.46
2018-08-28T22:38:16.101Z,18.42
2018-08-28T22:40:44.908Z,18.31
2018-08-28T22:43:18.104Z,18.33
2018-08-28T22:45:46.915Z,18.24
2018-08-28T22:48:15.759Z,18.24
2018-08-28T22:50:44.910Z,18.29
2018-08-28T22:53:13.702Z,18.28
2018-08-28T22:55:42.483Z,18.24
2018-08-28T22:58:11.284Z,18.27
2018-08-28T23:00:40.112Z,18.25
2018-08-28T23:03:08.879Z,18.14
2018-08-28T23:05:37.652Z,18.14
2018-08-28T23:08:06.419Z,18.19
2018-08-28T23:10:35.161Z,18.08
2018-08-28T23:13:04.089Z,18.08
2018-08-28T23:15:33.160Z,18.09
2018-08-28T23:18:01.958Z,18.08
2018-08-28T23:20:30.724Z,18.07
2018-08-28T23:22:59.468Z,18.01
2018-08-28T23:25:28.239Z,18.02
2018-08-28T23:27:56.984Z,18.02
2018-08-28T23:30:25.752Z,18.03
2018-08-28T23:32:54.636Z,17.97
2018-08-28T23:35:23.420Z,17.96
2018-08-28T23:37:52.175Z,17.87
2018-08-28T23:40:20.928Z,17.88
2018-08-28T23:42:49.704Z,17.77
2018-08-28T23:45:18.572Z,17.69
2018-08-28T23:47:47.320Z,17.64
2018-08-28T23:50:16.156Z,17.61
2018-08-28T23:52:44.893Z,17.59
2018-08-28T23:55:13.672Z,17.54
2018-08-28T23:57:42.509Z,17.48
